sensor_id;sensor_type;location;lat;lon;timestamp;P1;durP1;ratioP1;P2;durP2;ratioP2
4317;SDS011;2172;53.576;9.934;2023-08-07T00:00:35;3.40;;;3.00;;
4317;SDS011;2172;53.576;9.934;2023-08-07T00:03:02;3.97;;;2.97;;
4317;SDS011;2172;53.576;9.934;2023-08-07T00:05:30;4.90;;;3.53;;
4317;SDS011;2172;53.576;9.934;2023-08-07T00:07:59;4.13;;;3.00;;
4317;SDS011;2172;53.576;9.934;2023-08-07T00:10:27;3.30;;;3.00;;
4317;SDS011;2172;53.576;9.934;2023-08-07T00:12:55;3.50;;;2.70;;
4317;SDS011;2172;53.576;9.934;2023-08-07T00:15:23;5.17;;;2.90;;
4317;SDS011;2172;53.576;9.934;2023-08-07T00:17:50;4.73;;;2.83;;
4317;SDS011;2172;53.576;9.934;2023-08-07T00:20:18;5.13;;;2.97;;
4317;SDS011;2172;53.576;9.934;2023-08-07T00:22:46;4.27;;;2.90;;
4317;SDS011;2172;53.576;9.934;2023-08-07T00:25:15;7.47;;;2.90;;
4317;SDS011;2172;53.576;9.934;2023-08-07T00:27:43;3.30;;;2.97;;
4317;SDS011;2172;53.576;9.934;2023-08-07T00:30:11;6.87;;;5.47;;
4317;SDS011;2172;53.576;9.934;2023-08-07T00:32:39;3.63;;;3.20;;
4317;SDS011;2172;53.576;9.934;2023-08-07T00:35:07;3.53;;;2.90;;
4317;SDS011;2172;53.576;9.934;2023-08-07T00:37:34;10.10;;;3.30;;
4317;SDS011;2172;53.576;9.934;2023-08-07T00:40:02;6.20;;;2.90;;
4317;SDS011;2172;53.576;9.934;2023-08-07T00:42:32;7.03;;;5.53;;
4317;SDS011;2172;53.576;9.934;2023-08-07T00:44:59;6.43;;;3.83;;
4317;SDS011;2172;53.576;9.934;2023-08-07T00:47:28;6.83;;;4.07;;
4317;SDS011;2172;53.576;9.934;2023-08-07T00:49:55;3.23;;;2.93;;
4317;SDS011;2172;53.576;9.934;2023-08-07T00:52:23;5.20;;;3.70;;
4317;SDS011;2172;53.576;9.934;2023-08-07T00:54:51;3.97;;;3.27;;
4317;SDS011;2172;53.576;9.934;2023-08-07T00:57:18;4.13;;;3.07;;
4317;SDS011;2172;53.576;9.934;2023-08-07T00:59:49;13.73;;;3.93;;
4317;SDS011;2172;53.576;9.934;2023-08-07T01:02:17;7.57;;;4.90;;
4317;SDS011;2172;53.576;9.934;2023-08-07T01:04:46;7.73;;;2.93;;
4317;SDS011;2172;53.576;9.934;2023-08-07T01:07:14;2.73;;;2.53;;
4317;SDS011;2172;53.576;9.934;2023-08-07T01:09:43;3.03;;;2.80;;
4317;SDS011;2172;53.576;9.934;2023-08-07T01:12:13;4.80;;;2.70;;
4317;SDS011;2172;53.576;9.934;2023-08-07T01:14:51;3.30;;;2.40;;
4317;SDS011;2172;53.576;9.934;2023-08-07T01:17:21;4.13;;;3.40;;
4317;SDS011;2172;53.576;9.934;2023-08-07T01:19:49;4.30;;;2.93;;
4317;SDS011;2172;53.576;9.934;2023-08-07T01:22:19;3.70;;;3.40;;
4317;SDS011;2172;53.576;9.934;2023-08-07T01:24:48;3.53;;;2.93;;
4317;SDS011;2172;53.576;9.934;2023-08-07T01:27:22;3.93;;;3.53;;
4317;SDS011;2172;53.576;9.934;2023-08-07T01:29:57;5.07;;;3.37;;
4317;SDS011;2172;53.576;9.934;2023-08-07T01:32:34;4.60;;;3.23;;
4317;SDS011;2172;53.576;9.934;2023-08-07T01:35:08;6.40;;;4.23;;
4317;SDS011;2172;53.576;9.934;2023-08-07T01:37:41;5.53;;;2.80;;
4317;SDS011;2172;53.576;9.934;2023-08-07T01:40:09;5.47;;;3.07;;
4317;SDS011;2172;53.576;9.934;2023-08-07T01:42:37;6.17;;;3.10;;
4317;SDS011;2172;53.576;9.934;2023-08-07T01:45:05;7.37;;;4.27;;
4317;SDS011;2172;53.576;9.934;2023-08-07T01:47:33;6.60;;;2.83;;
4317;SDS011;2172;53.576;9.934;2023-08-07T01:50:19;3.50;;;2.87;;
4317;SDS011;2172;53.576;9.934;2023-08-07T01:52:49;4.60;;;3.23;;
4317;SDS011;2172;53.576;9.934;2023-08-07T01:55:16;6.37;;;3.43;;
4317;SDS011;2172;53.576;9.934;2023-08-07T01:57:51;3.47;;;2.63;;
4317;SDS011;2172;53.576;9.934;2023-08-07T02:00:20;7.77;;;3.30;;
4317;SDS011;2172;53.576;9.934;2023-08-07T02:02:47;6.80;;;3.87;;
4317;SDS011;2172;53.576;9.934;2023-08-07T02:05:15;4.13;;;3.00;;
4317;SDS011;2172;53.576;9.934;2023-08-07T02:07:43;8.60;;;3.93;;
4317;SDS011;2172;53.576;9.934;2023-08-07T02:10:13;3.97;;;3.00;;
4317;SDS011;2172;53.576;9.934;2023-08-07T02:12:41;3.87;;;3.37;;
4317;SDS011;2172;53.576;9.934;2023-08-07T02:15:09;6.63;;;3.20;;
4317;SDS011;2172;53.576;9.934;2023-08-07T02:17:36;4.93;;;3.20;;
4317;SDS011;2172;53.576;9.934;2023-08-07T02:20:06;3.70;;;3.17;;
4317;SDS011;2172;53.576;9.934;2023-08-07T02:22:35;6.30;;;3.50;;
4317;SDS011;2172;53.576;9.934;2023-08-07T02:25:02;4.60;;;3.27;;
4317;SDS011;2172;53.576;9.934;2023-08-07T02:27:32;3.07;;;2.70;;
4317;SDS011;2172;53.576;9.934;2023-08-07T02:29:59;8.93;;;3.53;;
4317;SDS011;2172;53.576;9.934;2023-08-07T02:32:28;3.90;;;2.60;;
4317;SDS011;2172;53.576;9.934;2023-08-07T02:34:56;3.33;;;2.40;;
4317;SDS011;2172;53.576;9.934;2023-08-07T02:37:24;5.10;;;2.97;;
4317;SDS011;2172;53.576;9.934;2023-08-07T02:39:52;4.90;;;2.70;;
4317;SDS011;2172;53.576;9.934;2023-08-07T02:42:19;5.37;;;2.40;;
4317;SDS011;2172;53.576;9.934;2023-08-07T02:44:48;5.23;;;3.13;;
4317;SDS011;2172;53.576;9.934;2023-08-07T02:47:15;5.47;;;2.57;;
4317;SDS011;2172;53.576;9.934;2023-08-07T02:49:43;4.57;;;2.43;;
4317;SDS011;2172;53.576;9.934;2023-08-07T02:52:10;6.13;;;3.20;;
4317;SDS011;2172;53.576;9.934;2023-08-07T02:54:38;4.17;;;2.83;;
4317;SDS011;2172;53.576;9.934;2023-08-07T02:57:06;6.30;;;2.83;;
4317;SDS011;2172;53.576;9.934;2023-08-07T02:59:33;7.40;;;2.93;;
4317;SDS011;2172;53.576;9.934;2023-08-07T03:02:02;2.90;;;2.70;;
4317;SDS011;2172;53.576;9.934;2023-08-07T03:04:30;6.20;;;3.00;;
4317;SDS011;2172;53.576;9.934;2023-08-07T03:06:58;7.00;;;2.80;;
4317;SDS011;2172;53.576;9.934;2023-08-07T03:09:26;3.70;;;2.70;;
4317;SDS011;2172;53.576;9.934;2023-08-07T03:11:53;3.77;;;2.50;;
4317;SDS011;2172;53.576;9.934;2023-08-07T03:14:21;6.37;;;2.57;;
4317;SDS011;2172;53.576;9.934;2023-08-07T03:16:48;4.17;;;2.67;;
4317;SDS011;2172;53.576;9.934;2023-08-07T03:19:18;5.13;;;2.57;;
4317;SDS011;2172;53.576;9.934;2023-08-07T03:21:47;3.40;;;2.30;;
4317;SDS011;2172;53.576;9.934;2023-08-07T03:24:14;2.80;;;2.07;;
4317;SDS011;2172;53.576;9.934;2023-08-07T03:26:42;5.20;;;3.00;;
4317;SDS011;2172;53.576;9.934;2023-08-07T03:29:12;4.90;;;2.70;;
4317;SDS011;2172;53.576;9.934;2023-08-07T03:31:41;5.50;;;2.57;;
4317;SDS011;2172;53.576;9.934;2023-08-07T03:34:09;3.13;;;2.53;;
4317;SDS011;2172;53.576;9.934;2023-08-07T03:36:38;4.60;;;2.50;;
4317;SDS011;2172;53.576;9.934;2023-08-07T03:39:06;8.00;;;3.20;;
4317;SDS011;2172;53.576;9.934;2023-08-07T03:41:35;3.50;;;3.03;;
4317;SDS011;2172;53.576;9.934;2023-08-07T03:44:03;4.33;;;3.10;;
4317;SDS011;2172;53.576;9.934;2023-08-07T03:46:32;5.83;;;3.10;;
4317;SDS011;2172;53.576;9.934;2023-08-07T03:49:00;3.83;;;2.90;;
4317;SDS011;2172;53.576;9.934;2023-08-07T03:51:28;9.57;;;3.00;;
4317;SDS011;2172;53.576;9.934;2023-08-07T03:53:59;6.40;;;3.07;;
4317;SDS011;2172;53.576;9.934;2023-08-07T03:56:26;7.30;;;3.40;;
4317;SDS011;2172;53.576;9.934;2023-08-07T03:58:57;4.33;;;3.33;;
4317;SDS011;2172;53.576;9.934;2023-08-07T04:01:25;4.13;;;3.00;;
4317;SDS011;2172;53.576;9.934;2023-08-07T04:03:52;5.70;;;3.30;;
4317;SDS011;2172;53.576;9.934;2023-08-07T04:06:20;3.77;;;2.83;;
4317;SDS011;2172;53.576;9.934;2023-08-07T04:08:48;5.03;;;3.47;;
4317;SDS011;2172;53.576;9.934;2023-08-07T04:11:16;7.77;;;3.50;;
4317;SDS011;2172;53.576;9.934;2023-08-07T04:13:44;10.03;;;3.63;;
4317;SDS011;2172;53.576;9.934;2023-08-07T04:16:11;9.70;;;3.33;;
4317;SDS011;2172;53.576;9.934;2023-08-07T04:18:39;4.70;;;3.10;;
4317;SDS011;2172;53.576;9.934;2023-08-07T04:21:06;8.50;;;3.80;;
4317;SDS011;2172;53.576;9.934;2023-08-07T04:23:34;6.23;;;4.00;;
4317;SDS011;2172;53.576;9.934;2023-08-07T04:26:01;4.83;;;3.00;;
4317;SDS011;2172;53.576;9.934;2023-08-07T04:28:30;5.67;;;4.17;;
4317;SDS011;2172;53.576;9.934;2023-08-07T04:30:58;4.30;;;3.43;;
4317;SDS011;2172;53.576;9.934;2023-08-07T04:33:25;5.20;;;2.80;;
4317;SDS011;2172;53.576;9.934;2023-08-07T04:35:54;5.37;;;3.50;;
4317;SDS011;2172;53.576;9.934;2023-08-07T04:38:21;7.13;;;3.00;;
4317;SDS011;2172;53.576;9.934;2023-08-07T04:40:51;12.30;;;3.77;;
4317;SDS011;2172;53.576;9.934;2023-08-07T04:43:19;5.50;;;3.70;;
4317;SDS011;2172;53.576;9.934;2023-08-07T04:45:48;4.20;;;3.20;;
4317;SDS011;2172;53.576;9.934;2023-08-07T04:48:16;5.27;;;3.43;;
4317;SDS011;2172;53.576;9.934;2023-08-07T04:50:46;6.47;;;3.50;;
4317;SDS011;2172;53.576;9.934;2023-08-07T04:53:13;8.70;;;3.80;;
4317;SDS011;2172;53.576;9.934;2023-08-07T04:55:41;5.73;;;3.83;;
4317;SDS011;2172;53.576;9.934;2023-08-07T04:58:08;4.87;;;3.43;;
4317;SDS011;2172;53.576;9.934;2023-08-07T05:00:36;7.60;;;4.33;;
4317;SDS011;2172;53.576;9.934;2023-08-07T05:03:04;4.90;;;3.63;;
4317;SDS011;2172;53.576;9.934;2023-08-07T05:05:35;6.03;;;3.63;;
4317;SDS011;2172;53.576;9.934;2023-08-07T05:08:03;5.77;;;3.70;;
4317;SDS011;2172;53.576;9.934;2023-08-07T05:10:31;5.10;;;3.80;;
4317;SDS011;2172;53.576;9.934;2023-08-07T05:12:58;11.03;;;3.77;;
4317;SDS011;2172;53.576;9.934;2023-08-07T05:15:26;8.43;;;4.07;;
4317;SDS011;2172;53.576;9.934;2023-08-07T05:17:55;6.83;;;3.90;;
4317;SDS011;2172;53.576;9.934;2023-08-07T05:20:24;8.20;;;3.87;;
4317;SDS011;2172;53.576;9.934;2023-08-07T05:22:54;7.57;;;3.67;;
4317;SDS011;2172;53.576;9.934;2023-08-07T05:25:22;8.93;;;3.90;;
4317;SDS011;2172;53.576;9.934;2023-08-07T05:27:52;9.10;;;4.40;;
4317;SDS011;2172;53.576;9.934;2023-08-07T05:30:19;7.53;;;3.90;;
4317;SDS011;2172;53.576;9.934;2023-08-07T05:32:47;10.90;;;3.80;;
4317;SDS011;2172;53.576;9.934;2023-08-07T05:35:16;6.53;;;4.23;;
4317;SDS011;2172;53.576;9.934;2023-08-07T05:37:47;6.03;;;3.70;;
4317;SDS011;2172;53.576;9.934;2023-08-07T05:40:15;12.47;;;3.90;;
4317;SDS011;2172;53.576;9.934;2023-08-07T05:42:42;6.20;;;3.80;;
4317;SDS011;2172;53.576;9.934;2023-08-07T05:45:10;6.77;;;3.23;;
4317;SDS011;2172;53.576;9.934;2023-08-07T05:47:37;5.93;;;3.40;;
4317;SDS011;2172;53.576;9.934;2023-08-07T05:50:05;6.17;;;3.37;;
4317;SDS011;2172;53.576;9.934;2023-08-07T05:52:33;12.83;;;3.90;;
4317;SDS011;2172;53.576;9.934;2023-08-07T05:55:02;6.80;;;4.03;;
4317;SDS011;2172;53.576;9.934;2023-08-07T05:57:33;11.07;;;3.90;;
4317;SDS011;2172;53.576;9.934;2023-08-07T06:00:01;14.90;;;3.70;;
4317;SDS011;2172;53.576;9.934;2023-08-07T06:02:37;6.90;;;4.23;;
4317;SDS011;2172;53.576;9.934;2023-08-07T06:05:05;7.77;;;4.03;;
4317;SDS011;2172;53.576;9.934;2023-08-07T06:07:33;7.40;;;3.50;;
4317;SDS011;2172;53.576;9.934;2023-08-07T06:10:00;10.50;;;4.03;;
4317;SDS011;2172;53.576;9.934;2023-08-07T06:12:30;9.50;;;3.67;;
4317;SDS011;2172;53.576;9.934;2023-08-07T06:14:57;12.37;;;3.60;;
4317;SDS011;2172;53.576;9.934;2023-08-07T06:17:25;6.90;;;3.23;;
4317;SDS011;2172;53.576;9.934;2023-08-07T06:19:53;8.53;;;4.10;;
4317;SDS011;2172;53.576;9.934;2023-08-07T06:22:20;8.17;;;3.97;;
4317;SDS011;2172;53.576;9.934;2023-08-07T06:24:48;13.97;;;4.23;;
4317;SDS011;2172;53.576;9.934;2023-08-07T06:27:17;9.00;;;4.53;;
4317;SDS011;2172;53.576;9.934;2023-08-07T06:29:47;11.97;;;4.53;;
4317;SDS011;2172;53.576;9.934;2023-08-07T06:32:14;14.77;;;4.60;;
4317;SDS011;2172;53.576;9.934;2023-08-07T06:34:43;16.30;;;4.90;;
4317;SDS011;2172;53.576;9.934;2023-08-07T06:37:15;13.80;;;5.33;;
4317;SDS011;2172;53.576;9.934;2023-08-07T06:39:43;6.47;;;3.27;;
4317;SDS011;2172;53.576;9.934;2023-08-07T06:42:13;8.77;;;4.60;;
4317;SDS011;2172;53.576;9.934;2023-08-07T06:44:46;10.33;;;6.10;;
4317;SDS011;2172;53.576;9.934;2023-08-07T06:47:14;16.63;;;4.80;;
4317;SDS011;2172;53.576;9.934;2023-08-07T06:49:41;18.90;;;5.87;;
4317;SDS011;2172;53.576;9.934;2023-08-07T06:52:09;18.30;;;5.27;;
4317;SDS011;2172;53.576;9.934;2023-08-07T06:54:36;15.03;;;4.33;;
4317;SDS011;2172;53.576;9.934;2023-08-07T06:57:04;12.50;;;4.13;;
4317;SDS011;2172;53.576;9.934;2023-08-07T06:59:33;12.00;;;4.03;;
4317;SDS011;2172;53.576;9.934;2023-08-07T07:02:01;13.47;;;4.43;;
4317;SDS011;2172;53.576;9.934;2023-08-07T07:04:29;16.93;;;4.70;;
4317;SDS011;2172;53.576;9.934;2023-08-07T07:06:56;13.00;;;5.00;;
4317;SDS011;2172;53.576;9.934;2023-08-07T07:09:24;17.70;;;4.70;;
4317;SDS011;2172;53.576;9.934;2023-08-07T07:11:54;15.40;;;5.10;;
4317;SDS011;2172;53.576;9.934;2023-08-07T07:14:21;8.20;;;4.00;;
4317;SDS011;2172;53.576;9.934;2023-08-07T07:16:50;14.47;;;5.20;;
4317;SDS011;2172;53.576;9.934;2023-08-07T07:19:18;9.20;;;4.50;;
4317;SDS011;2172;53.576;9.934;2023-08-07T07:21:45;8.30;;;4.10;;
4317;SDS011;2172;53.576;9.934;2023-08-07T07:24:13;11.30;;;4.57;;
4317;SDS011;2172;53.576;9.934;2023-08-07T07:26:41;12.93;;;4.60;;
4317;SDS011;2172;53.576;9.934;2023-08-07T07:29:08;15.23;;;5.90;;
4317;SDS011;2172;53.576;9.934;2023-08-07T07:31:36;12.13;;;4.97;;
4317;SDS011;2172;53.576;9.934;2023-08-07T07:34:05;18.13;;;5.13;;
4317;SDS011;2172;53.576;9.934;2023-08-07T07:36:32;12.13;;;4.20;;
4317;SDS011;2172;53.576;9.934;2023-08-07T07:39:00;11.83;;;5.20;;
4317;SDS011;2172;53.576;9.934;2023-08-07T07:41:28;9.83;;;5.37;;
4317;SDS011;2172;53.576;9.934;2023-08-07T07:43:55;12.73;;;4.13;;
4317;SDS011;2172;53.576;9.934;2023-08-07T07:46:23;9.10;;;3.90;;
4317;SDS011;2172;53.576;9.934;2023-08-07T07:48:50;11.13;;;4.60;;
4317;SDS011;2172;53.576;9.934;2023-08-07T07:51:19;9.00;;;4.20;;
4317;SDS011;2172;53.576;9.934;2023-08-07T07:53:47;11.60;;;4.70;;
4317;SDS011;2172;53.576;9.934;2023-08-07T07:56:14;12.00;;;4.23;;
4317;SDS011;2172;53.576;9.934;2023-08-07T07:58:42;13.30;;;4.90;;
4317;SDS011;2172;53.576;9.934;2023-08-07T08:01:09;10.30;;;3.70;;
4317;SDS011;2172;53.576;9.934;2023-08-07T08:03:37;15.73;;;5.10;;
4317;SDS011;2172;53.576;9.934;2023-08-07T08:06:05;14.20;;;4.43;;
4317;SDS011;2172;53.576;9.934;2023-08-07T08:08:34;8.33;;;3.87;;
4317;SDS011;2172;53.576;9.934;2023-08-07T08:11:01;12.37;;;4.37;;
4317;SDS011;2172;53.576;9.934;2023-08-07T08:13:29;12.03;;;4.37;;
4317;SDS011;2172;53.576;9.934;2023-08-07T08:15:57;11.33;;;3.90;;
4317;SDS011;2172;53.576;9.934;2023-08-07T08:18:24;10.53;;;4.30;;
4317;SDS011;2172;53.576;9.934;2023-08-07T08:20:53;12.47;;;4.90;;
4317;SDS011;2172;53.576;9.934;2023-08-07T08:23:21;16.73;;;5.37;;
4317;SDS011;2172;53.576;9.934;2023-08-07T08:25:50;10.90;;;4.90;;
4317;SDS011;2172;53.576;9.934;2023-08-07T08:28:17;10.30;;;4.03;;
4317;SDS011;2172;53.576;9.934;2023-08-07T08:30:45;10.73;;;4.40;;
4317;SDS011;2172;53.576;9.934;2023-08-07T08:33:12;10.80;;;4.73;;
4317;SDS011;2172;53.576;9.934;2023-08-07T08:35:40;10.63;;;5.27;;
4317;SDS011;2172;53.576;9.934;2023-08-07T08:38:08;17.67;;;6.30;;
4317;SDS011;2172;53.576;9.934;2023-08-07T08:40:36;10.60;;;4.23;;
4317;SDS011;2172;53.576;9.934;2023-08-07T08:43:06;10.93;;;4.43;;
4317;SDS011;2172;53.576;9.934;2023-08-07T08:45:36;10.57;;;5.23;;
4317;SDS011;2172;53.576;9.934;2023-08-07T08:48:03;16.07;;;5.00;;
4317;SDS011;2172;53.576;9.934;2023-08-07T08:50:32;13.37;;;5.20;;
4317;SDS011;2172;53.576;9.934;2023-08-07T08:53:00;12.20;;;4.60;;
4317;SDS011;2172;53.576;9.934;2023-08-07T08:55:30;13.67;;;5.53;;
4317;SDS011;2172;53.576;9.934;2023-08-07T08:57:57;10.77;;;4.67;;
4317;SDS011;2172;53.576;9.934;2023-08-07T09:00:27;12.93;;;4.87;;
4317;SDS011;2172;53.576;9.934;2023-08-07T09:02:55;14.77;;;5.43;;
4317;SDS011;2172;53.576;9.934;2023-08-07T09:05:24;14.80;;;5.20;;
4317;SDS011;2172;53.576;9.934;2023-08-07T09:07:51;12.07;;;5.03;;
4317;SDS011;2172;53.576;9.934;2023-08-07T09:10:19;8.63;;;3.77;;
4317;SDS011;2172;53.576;9.934;2023-08-07T09:12:49;8.10;;;3.70;;
4317;SDS011;2172;53.576;9.934;2023-08-07T09:15:20;10.57;;;3.70;;
4317;SDS011;2172;53.576;9.934;2023-08-07T09:17:50;8.77;;;4.07;;
4317;SDS011;2172;53.576;9.934;2023-08-07T09:20:18;11.30;;;4.27;;
4317;SDS011;2172;53.576;9.934;2023-08-07T09:22:47;14.20;;;5.03;;
4317;SDS011;2172;53.576;9.934;2023-08-07T09:25:14;8.10;;;4.27;;
4317;SDS011;2172;53.576;9.934;2023-08-07T09:27:42;12.50;;;4.20;;
4317;SDS011;2172;53.576;9.934;2023-08-07T09:30:09;12.10;;;3.60;;
4317;SDS011;2172;53.576;9.934;2023-08-07T09:32:37;11.30;;;3.63;;
4317;SDS011;2172;53.576;9.934;2023-08-07T09:35:08;10.23;;;3.47;;
4317;SDS011;2172;53.576;9.934;2023-08-07T09:37:35;12.63;;;4.13;;
4317;SDS011;2172;53.576;9.934;2023-08-07T09:40:04;10.53;;;4.00;;
4317;SDS011;2172;53.576;9.934;2023-08-07T09:42:36;12.07;;;4.13;;
4317;SDS011;2172;53.576;9.934;2023-08-07T09:45:06;7.83;;;3.80;;
4317;SDS011;2172;53.576;9.934;2023-08-07T09:47:46;8.37;;;3.50;;
4317;SDS011;2172;53.576;9.934;2023-08-07T09:50:22;9.50;;;4.40;;
4317;SDS011;2172;53.576;9.934;2023-08-07T09:52:50;8.57;;;3.33;;
4317;SDS011;2172;53.576;9.934;2023-08-07T09:55:17;13.93;;;4.60;;
4317;SDS011;2172;53.576;9.934;2023-08-07T09:57:45;10.43;;;3.80;;
4317;SDS011;2172;53.576;9.934;2023-08-07T10:00:13;7.67;;;3.50;;
4317;SDS011;2172;53.576;9.934;2023-08-07T10:02:41;10.53;;;3.57;;
4317;SDS011;2172;53.576;9.934;2023-08-07T10:05:09;13.73;;;3.93;;
4317;SDS011;2172;53.576;9.934;2023-08-07T10:07:39;7.13;;;3.53;;
4317;SDS011;2172;53.576;9.934;2023-08-07T10:10:07;9.57;;;3.97;;
4317;SDS011;2172;53.576;9.934;2023-08-07T10:12:36;8.10;;;4.30;;
4317;SDS011;2172;53.576;9.934;2023-08-07T10:15:04;10.30;;;3.70;;
4317;SDS011;2172;53.576;9.934;2023-08-07T10:17:32;12.93;;;3.87;;
4317;SDS011;2172;53.576;9.934;2023-08-07T10:20:00;8.63;;;3.40;;
4317;SDS011;2172;53.576;9.934;2023-08-07T10:22:29;4.90;;;2.50;;
4317;SDS011;2172;53.576;9.934;2023-08-07T10:24:59;11.00;;;3.90;;
4317;SDS011;2172;53.576;9.934;2023-08-07T10:27:29;9.93;;;3.53;;
4317;SDS011;2172;53.576;9.934;2023-08-07T10:29:57;10.80;;;3.93;;
4317;SDS011;2172;53.576;9.934;2023-08-07T10:32:26;12.70;;;4.10;;
4317;SDS011;2172;53.576;9.934;2023-08-07T10:34:55;10.57;;;4.10;;
4317;SDS011;2172;53.576;9.934;2023-08-07T10:37:33;11.40;;;3.87;;
4317;SDS011;2172;53.576;9.934;2023-08-07T10:40:08;8.33;;;4.10;;
4317;SDS011;2172;53.576;9.934;2023-08-07T10:42:52;7.97;;;3.33;;
4317;SDS011;2172;53.576;9.934;2023-08-07T10:45:24;8.70;;;3.37;;
4317;SDS011;2172;53.576;9.934;2023-08-07T10:48:01;11.03;;;3.73;;
4317;SDS011;2172;53.576;9.934;2023-08-07T10:50:29;9.83;;;3.47;;
4317;SDS011;2172;53.576;9.934;2023-08-07T10:52:59;9.80;;;4.30;;
4317;SDS011;2172;53.576;9.934;2023-08-07T10:55:32;12.83;;;3.80;;
4317;SDS011;2172;53.576;9.934;2023-08-07T10:58:20;11.63;;;3.20;;
4317;SDS011;2172;53.576;9.934;2023-08-07T11:00:49;12.70;;;4.00;;
4317;SDS011;2172;53.576;9.934;2023-08-07T11:03:25;12.10;;;3.60;;
4317;SDS011;2172;53.576;9.934;2023-08-07T11:05:54;10.27;;;4.33;;
4317;SDS011;2172;53.576;9.934;2023-08-07T11:08:25;8.83;;;3.10;;
4317;SDS011;2172;53.576;9.934;2023-08-07T11:10:53;8.80;;;3.30;;
4317;SDS011;2172;53.576;9.934;2023-08-07T11:13:21;10.80;;;3.67;;
4317;SDS011;2172;53.576;9.934;2023-08-07T11:15:49;10.53;;;3.47;;
4317;SDS011;2172;53.576;9.934;2023-08-07T11:18:16;7.80;;;3.03;;
4317;SDS011;2172;53.576;9.934;2023-08-07T11:20:44;12.43;;;3.27;;
4317;SDS011;2172;53.576;9.934;2023-08-07T11:23:13;9.73;;;2.73;;
4317;SDS011;2172;53.576;9.934;2023-08-07T11:25:41;6.80;;;3.00;;
4317;SDS011;2172;53.576;9.934;2023-08-07T11:28:10;9.87;;;3.67;;
4317;SDS011;2172;53.576;9.934;2023-08-07T11:30:37;7.97;;;3.37;;
4317;SDS011;2172;53.576;9.934;2023-08-07T11:33:05;12.07;;;3.23;;
4317;SDS011;2172;53.576;9.934;2023-08-07T11:35:33;8.30;;;3.17;;
4317;SDS011;2172;53.576;9.934;2023-08-07T11:38:00;8.40;;;3.57;;
4317;SDS011;2172;53.576;9.934;2023-08-07T11:40:28;7.87;;;3.10;;
4317;SDS011;2172;53.576;9.934;2023-08-07T11:42:56;10.30;;;3.57;;
4317;SDS011;2172;53.576;9.934;2023-08-07T11:45:26;8.30;;;2.70;;
4317;SDS011;2172;53.576;9.934;2023-08-07T11:47:53;8.03;;;3.70;;
4317;SDS011;2172;53.576;9.934;2023-08-07T11:50:23;15.93;;;4.87;;
4317;SDS011;2172;53.576;9.934;2023-08-07T11:52:50;9.27;;;3.53;;
4317;SDS011;2172;53.576;9.934;2023-08-07T11:55:18;10.03;;;2.00;;
4317;SDS011;2172;53.576;9.934;2023-08-07T11:57:46;9.70;;;3.43;;
4317;SDS011;2172;53.576;9.934;2023-08-07T12:00:14;9.20;;;4.07;;
4317;SDS011;2172;53.576;9.934;2023-08-07T12:02:44;5.83;;;2.97;;
4317;SDS011;2172;53.576;9.934;2023-08-07T12:05:11;8.40;;;2.80;;
4317;SDS011;2172;53.576;9.934;2023-08-07T12:07:39;7.80;;;3.33;;
4317;SDS011;2172;53.576;9.934;2023-08-07T12:10:07;8.30;;;3.10;;
4317;SDS011;2172;53.576;9.934;2023-08-07T12:12:35;6.00;;;2.30;;
4317;SDS011;2172;53.576;9.934;2023-08-07T12:15:04;7.37;;;3.17;;
4317;SDS011;2172;53.576;9.934;2023-08-07T12:17:35;11.10;;;2.30;;
4317;SDS011;2172;53.576;9.934;2023-08-07T12:20:05;9.07;;;2.93;;
4317;SDS011;2172;53.576;9.934;2023-08-07T12:22:35;11.13;;;2.60;;
4317;SDS011;2172;53.576;9.934;2023-08-07T12:25:03;9.47;;;2.83;;
4317;SDS011;2172;53.576;9.934;2023-08-07T12:27:31;9.87;;;3.80;;
4317;SDS011;2172;53.576;9.934;2023-08-07T12:29:59;9.77;;;3.30;;
4317;SDS011;2172;53.576;9.934;2023-08-07T12:32:27;8.07;;;3.30;;
4317;SDS011;2172;53.576;9.934;2023-08-07T12:34:54;10.63;;;3.40;;
4317;SDS011;2172;53.576;9.934;2023-08-07T12:37:23;6.30;;;3.73;;
4317;SDS011;2172;53.576;9.934;2023-08-07T12:39:51;7.47;;;3.73;;
4317;SDS011;2172;53.576;9.934;2023-08-07T12:42:18;12.73;;;4.73;;
4317;SDS011;2172;53.576;9.934;2023-08-07T12:44:46;12.23;;;4.20;;
4317;SDS011;2172;53.576;9.934;2023-08-07T12:47:13;7.83;;;4.00;;
4317;SDS011;2172;53.576;9.934;2023-08-07T12:49:41;14.80;;;5.60;;
4317;SDS011;2172;53.576;9.934;2023-08-07T12:52:11;9.60;;;4.80;;
4317;SDS011;2172;53.576;9.934;2023-08-07T12:54:40;12.30;;;4.47;;
4317;SDS011;2172;53.576;9.934;2023-08-07T12:57:07;9.17;;;4.17;;
4317;SDS011;2172;53.576;9.934;2023-08-07T12:59:35;14.67;;;4.60;;
4317;SDS011;2172;53.576;9.934;2023-08-07T13:02:03;9.13;;;4.50;;
4317;SDS011;2172;53.576;9.934;2023-08-07T13:04:30;10.53;;;3.60;;
4317;SDS011;2172;53.576;9.934;2023-08-07T13:06:58;12.50;;;3.80;;
4317;SDS011;2172;53.576;9.934;2023-08-07T13:09:25;11.37;;;3.80;;
4317;SDS011;2172;53.576;9.934;2023-08-07T13:11:54;9.23;;;3.00;;
4317;SDS011;2172;53.576;9.934;2023-08-07T13:14:22;9.63;;;3.37;;
4317;SDS011;2172;53.576;9.934;2023-08-07T13:16:49;6.73;;;2.90;;
4317;SDS011;2172;53.576;9.934;2023-08-07T13:19:17;13.70;;;3.80;;
4317;SDS011;2172;53.576;9.934;2023-08-07T13:21:45;10.97;;;4.20;;
4317;SDS011;2172;53.576;9.934;2023-08-07T13:24:12;12.40;;;4.00;;
4317;SDS011;2172;53.576;9.934;2023-08-07T13:26:40;8.00;;;3.97;;
4317;SDS011;2172;53.576;9.934;2023-08-07T13:29:11;19.63;;;5.90;;
4317;SDS011;2172;53.576;9.934;2023-08-07T13:31:39;8.90;;;3.67;;
4317;SDS011;2172;53.576;9.934;2023-08-07T13:34:09;10.33;;;4.37;;
4317;SDS011;2172;53.576;9.934;2023-08-07T13:36:37;14.33;;;4.33;;
4317;SDS011;2172;53.576;9.934;2023-08-07T13:39:05;10.23;;;3.93;;
4317;SDS011;2172;53.576;9.934;2023-08-07T13:41:34;6.17;;;3.50;;
4317;SDS011;2172;53.576;9.934;2023-08-07T13:44:02;8.10;;;3.70;;
4317;SDS011;2172;53.576;9.934;2023-08-07T13:46:31;11.07;;;3.90;;
4317;SDS011;2172;53.576;9.934;2023-08-07T13:48:58;8.37;;;3.87;;
4317;SDS011;2172;53.576;9.934;2023-08-07T13:51:26;7.30;;;2.90;;
4317;SDS011;2172;53.576;9.934;2023-08-07T13:53:54;10.90;;;3.10;;
4317;SDS011;2172;53.576;9.934;2023-08-07T13:56:21;9.83;;;3.20;;
4317;SDS011;2172;53.576;9.934;2023-08-07T13:58:50;6.03;;;3.43;;
4317;SDS011;2172;53.576;9.934;2023-08-07T14:01:19;10.33;;;4.03;;
4317;SDS011;2172;53.576;9.934;2023-08-07T14:03:48;8.83;;;3.30;;
4317;SDS011;2172;53.576;9.934;2023-08-07T14:06:16;7.00;;;3.40;;
4317;SDS011;2172;53.576;9.934;2023-08-07T14:08:43;13.20;;;3.87;;
4317;SDS011;2172;53.576;9.934;2023-08-07T14:11:11;7.77;;;3.10;;
4317;SDS011;2172;53.576;9.934;2023-08-07T14:13:40;6.60;;;3.37;;
4317;SDS011;2172;53.576;9.934;2023-08-07T14:16:07;6.27;;;3.60;;
4317;SDS011;2172;53.576;9.934;2023-08-07T14:18:35;9.33;;;3.73;;
4317;SDS011;2172;53.576;9.934;2023-08-07T14:21:04;11.30;;;4.07;;
4317;SDS011;2172;53.576;9.934;2023-08-07T14:23:31;9.87;;;4.67;;
4317;SDS011;2172;53.576;9.934;2023-08-07T14:25:58;6.23;;;3.10;;
4317;SDS011;2172;53.576;9.934;2023-08-07T14:28:27;10.70;;;3.50;;
4317;SDS011;2172;53.576;9.934;2023-08-07T14:30:56;8.27;;;3.50;;
4317;SDS011;2172;53.576;9.934;2023-08-07T14:33:24;9.43;;;3.77;;
4317;SDS011;2172;53.576;9.934;2023-08-07T14:35:52;8.30;;;4.60;;
4317;SDS011;2172;53.576;9.934;2023-08-07T14:38:21;11.00;;;3.97;;
4317;SDS011;2172;53.576;9.934;2023-08-07T14:40:48;12.33;;;4.20;;
4317;SDS011;2172;53.576;9.934;2023-08-07T14:43:16;9.47;;;4.40;;
4317;SDS011;2172;53.576;9.934;2023-08-07T14:45:44;7.97;;;4.40;;
4317;SDS011;2172;53.576;9.934;2023-08-07T14:48:12;8.53;;;4.30;;
4317;SDS011;2172;53.576;9.934;2023-08-07T14:50:40;12.73;;;3.47;;
4317;SDS011;2172;53.576;9.934;2023-08-07T14:53:07;7.87;;;3.73;;
4317;SDS011;2172;53.576;9.934;2023-08-07T14:55:36;7.10;;;3.80;;
4317;SDS011;2172;53.576;9.934;2023-08-07T14:58:04;6.10;;;3.40;;
4317;SDS011;2172;53.576;9.934;2023-08-07T15:00:31;10.27;;;3.90;;
4317;SDS011;2172;53.576;9.934;2023-08-07T15:02:59;16.27;;;5.37;;
4317;SDS011;2172;53.576;9.934;2023-08-07T15:05:27;12.33;;;5.03;;
4317;SDS011;2172;53.576;9.934;2023-08-07T15:07:55;10.30;;;3.63;;
4317;SDS011;2172;53.576;9.934;2023-08-07T15:10:22;7.33;;;4.43;;
4317;SDS011;2172;53.576;9.934;2023-08-07T15:12:51;10.30;;;4.20;;
4317;SDS011;2172;53.576;9.934;2023-08-07T15:15:19;12.40;;;4.50;;
4317;SDS011;2172;53.576;9.934;2023-08-07T15:17:46;10.50;;;3.83;;